sensor_id;sensor_type;location;lat;lon;timestamp;temperature;humidity
70368;DHT22;57789;53.868;10.728;2023-06-24T00:02:14;16.00;99.90
70368;DHT22;57789;53.868;10.728;2023-06-24T00:04:40;16.00;99.90
70368;DHT22;57789;53.868;10.728;2023-06-24T00:07:06;16.00;99.90
70368;DHT22;57789;53.868;10.728;2023-06-24T00:09:32;16.00;99.90
70368;DHT22;57789;53.868;10.728;2023-06-24T00:11:59;16.00;99.90
70368;DHT22;57789;53.868;10.728;2023-06-24T00:14:26;15.90;99.90
70368;DHT22;57789;53.868;10.728;2023-06-24T00:16:55;15.90;99.90
70368;DHT22;57789;53.868;10.728;2023-06-24T00:19:23;15.80;99.90
70368;DHT22;57789;53.868;10.728;2023-06-24T00:21:50;15.80;99.90
70368;DHT22;57789;53.868;10.728;2023-06-24T00:24:20;15.80;99.90
70368;DHT22;57789;53.868;10.728;2023-06-24T00:26:54;15.70;99.90
70368;DHT22;57789;53.868;10.728;2023-06-24T00:29:20;15.70;99.90
70368;DHT22;57789;53.868;10.728;2023-06-24T00:31:46;15.70;99.90
70368;DHT22;57789;53.868;10.728;2023-06-24T00:34:13;15.70;99.90
70368;DHT22;57789;53.868;10.728;2023-06-24T00:36:39;15.70;99.90
70368;DHT22;57789;53.868;10.728;2023-06-24T00:39:05;15.70;99.90
70368;DHT22;57789;53.868;10.728;2023-06-24T00:41:34;15.70;99.90
70368;DHT22;57789;53.868;10.728;2023-06-24T00:44:00;15.70;99.90
70368;DHT22;57789;53.868;10.728;2023-06-24T00:46:27;15.70;99.90
70368;DHT22;57789;53.868;10.728;2023-06-24T00:48:55;15.60;99.90
70368;DHT22;57789;53.868;10.728;2023-06-24T00:51:21;15.50;99.90
70368;DHT22;57789;53.868;10.728;2023-06-24T00:53:52;15.50;99.90
70368;DHT22;57789;53.868;10.728;2023-06-24T00:56:20;15.50;99.90
70368;DHT22;57789;53.868;10.728;2023-06-24T00:58:48;15.50;99.90
70368;DHT22;57789;53.868;10.728;2023-06-24T01:01:16;15.50;99.90
70368;DHT22;57789;53.868;10.728;2023-06-24T01:03:42;15.70;99.90
70368;DHT22;57789;53.868;10.728;2023-06-24T01:06:09;15.80;99.90
70368;DHT22;57789;53.868;10.728;2023-06-24T01:08:35;15.80;99.90
70368;DHT22;57789;53.868;10.728;2023-06-24T01:11:01;15.60;99.90
70368;DHT22;57789;53.868;10.728;2023-06-24T01:13:27;15.60;99.90
70368;DHT22;57789;53.868;10.728;2023-06-24T01:15:53;15.60;99.90
70368;DHT22;57789;53.868;10.728;2023-06-24T01:34:59;15.40;99.90
70368;DHT22;57789;53.868;10.728;2023-06-24T01:37:29;15.30;99.90
70368;DHT22;57789;53.868;10.728;2023-06-24T01:42:39;15.20;99.90
70368;DHT22;57789;53.868;10.728;2023-06-24T01:45:13;15.20;99.90
70368;DHT22;57789;53.868;10.728;2023-06-24T01:47:44;15.10;99.90
70368;DHT22;57789;53.868;10.728;2023-06-24T01:50:11;15.00;99.90
70368;DHT22;57789;53.868;10.728;2023-06-24T01:52:41;15.00;99.90
70368;DHT22;57789;53.868;10.728;2023-06-24T01:55:10;14.90;99.90
70368;DHT22;57789;53.868;10.728;2023-06-24T01:57:37;14.90;99.90
70368;DHT22;57789;53.868;10.728;2023-06-24T02:00:04;14.90;99.90
70368;DHT22;57789;53.868;10.728;2023-06-24T02:02:32;14.90;99.90
70368;DHT22;57789;53.868;10.728;2023-06-24T02:05:00;14.80;99.90
70368;DHT22;57789;53.868;10.728;2023-06-24T02:07:28;14.80;99.90
70368;DHT22;57789;53.868;10.728;2023-06-24T02:09:56;14.80;99.90
70368;DHT22;57789;53.868;10.728;2023-06-24T02:12:24;14.80;99.90
70368;DHT22;57789;53.868;10.728;2023-06-24T02:14:52;14.70;99.90
70368;DHT22;57789;53.868;10.728;2023-06-24T02:17:20;14.80;99.90
70368;DHT22;57789;53.868;10.728;2023-06-24T02:19:48;14.90;99.90
70368;DHT22;57789;53.868;10.728;2023-06-24T02:22:14;14.90;99.90
70368;DHT22;57789;53.868;10.728;2023-06-24T02:24:41;14.90;99.90
70368;DHT22;57789;53.868;10.728;2023-06-24T02:27:08;14.80;99.90
70368;DHT22;57789;53.868;10.728;2023-06-24T02:29:35;14.80;99.90
70368;DHT22;57789;53.868;10.728;2023-06-24T02:32:02;14.80;99.90
70368;DHT22;57789;53.868;10.728;2023-06-24T02:34:28;14.80;99.90
70368;DHT22;57789;53.868;10.728;2023-06-24T02:36:54;14.70;99.90
70368;DHT22;57789;53.868;10.728;2023-06-24T02:39:20;14.60;99.90
70368;DHT22;57789;53.868;10.728;2023-06-24T02:41:46;14.60;99.90
70368;DHT22;57789;53.868;10.728;2023-06-24T02:44:13;14.50;99.90
70368;DHT22;57789;53.868;10.728;2023-06-24T02:46:40;14.50;99.90
70368;DHT22;57789;53.868;10.728;2023-06-24T02:49:08;14.50;99.90
70368;DHT22;57789;53.868;10.728;2023-06-24T02:51:35;14.50;99.90
70368;DHT22;57789;53.868;10.728;2023-06-24T02:54:02;14.40;99.90
70368;DHT22;57789;53.868;10.728;2023-06-24T02:56:28;14.40;99.90
70368;DHT22;57789;53.868;10.728;2023-06-24T02:58:54;14.40;99.90
70368;DHT22;57789;53.868;10.728;2023-06-24T03:01:21;14.40;99.90
70368;DHT22;57789;53.868;10.728;2023-06-24T03:03:54;14.40;99.90
70368;DHT22;57789;53.868;10.728;2023-06-24T03:06:21;14.40;99.90
70368;DHT22;57789;53.868;10.728;2023-06-24T03:08:48;14.40;99.90
70368;DHT22;57789;53.868;10.728;2023-06-24T03:11:15;14.40;99.90
70368;DHT22;57789;53.868;10.728;2023-06-24T03:13:41;14.40;99.90
70368;DHT22;57789;53.868;10.728;2023-06-24T03:16:07;14.40;99.90
70368;DHT22;57789;53.868;10.728;2023-06-24T03:18:44;14.30;99.90
70368;DHT22;57789;53.868;10.728;2023-06-24T03:21:10;14.30;99.90
70368;DHT22;57789;53.868;10.728;2023-06-24T03:23:36;14.30;99.90
70368;DHT22;57789;53.868;10.728;2023-06-24T03:26:02;14.40;99.90
70368;DHT22;57789;53.868;10.728;2023-06-24T03:28:31;14.40;99.90
70368;DHT22;57789;53.868;10.728;2023-06-24T03:30:59;14.30;99.90
70368;DHT22;57789;53.868;10.728;2023-06-24T03:33:25;14.40;99.90
70368;DHT22;57789;53.868;10.728;2023-06-24T03:35:53;14.40;99.90
70368;DHT22;57789;53.868;10.728;2023-06-24T03:38:22;14.40;99.90
70368;DHT22;57789;53.868;10.728;2023-06-24T03:40:48;14.40;99.90
70368;DHT22;57789;53.868;10.728;2023-06-24T03:43:14;14.40;99.90
70368;DHT22;57789;53.868;10.728;2023-06-24T03:45:39;14.40;99.90
70368;DHT22;57789;53.868;10.728;2023-06-24T03:48:05;14.50;99.90
70368;DHT22;57789;53.868;10.728;2023-06-24T03:50:31;14.50;99.90
70368;DHT22;57789;53.868;10.728;2023-06-24T03:52:57;14.50;99.90
70368;DHT22;57789;53.868;10.728;2023-06-24T03:55:23;14.60;99.90
70368;DHT22;57789;53.868;10.728;2023-06-24T03:57:49;14.60;99.90
70368;DHT22;57789;53.868;10.728;2023-06-24T04:00:14;14.60;99.90
70368;DHT22;57789;53.868;10.728;2023-06-24T04:02:46;14.60;99.90
70368;DHT22;57789;53.868;10.728;2023-06-24T04:05:12;14.60;99.90
70368;DHT22;57789;53.868;10.728;2023-06-24T04:07:38;14.60;99.90
70368;DHT22;57789;53.868;10.728;2023-06-24T04:10:05;14.60;99.90
70368;DHT22;57789;53.868;10.728;2023-06-24T04:12:37;14.70;99.90
70368;DHT22;57789;53.868;10.728;2023-06-24T04:15:04;14.70;99.90
70368;DHT22;57789;53.868;10.728;2023-06-24T04:17:31;14.70;99.90
70368;DHT22;57789;53.868;10.728;2023-06-24T04:19:57;14.70;99.90
70368;DHT22;57789;53.868;10.728;2023-06-24T04:22:25;14.80;99.90
70368;DHT22;57789;53.868;10.728;2023-06-24T04:24:51;14.80;99.90
70368;DHT22;57789;53.868;10.728;2023-06-24T04:27:18;14.80;99.90
70368;DHT22;57789;53.868;10.728;2023-06-24T04:29:44;14.80;99.90
70368;DHT22;57789;53.868;10.728;2023-06-24T04:32:09;14.80;99.90
70368;DHT22;57789;53.868;10.728;2023-06-24T04:34:38;14.80;99.90
70368;DHT22;57789;53.868;10.728;2023-06-24T04:37:06;14.80;99.90
70368;DHT22;57789;53.868;10.728;2023-06-24T04:39:31;14.90;99.90
70368;DHT22;57789;53.868;10.728;2023-06-24T04:41:57;14.90;99.90
70368;DHT22;57789;53.868;10.728;2023-06-24T04:44:23;14.90;99.90
70368;DHT22;57789;53.868;10.728;2023-06-24T04:46:49;14.90;99.90
70368;DHT22;57789;53.868;10.728;2023-06-24T04:49:15;14.90;99.90
70368;DHT22;57789;53.868;10.728;2023-06-24T04:51:41;14.90;99.90
70368;DHT22;57789;53.868;10.728;2023-06-24T04:54:06;14.90;99.90
70368;DHT22;57789;53.868;10.728;2023-06-24T04:56:33;15.00;99.90
70368;DHT22;57789;53.868;10.728;2023-06-24T04:59:00;15.00;99.90
70368;DHT22;57789;53.868;10.728;2023-06-24T05:01:26;15.10;99.90
70368;DHT22;57789;53.868;10.728;2023-06-24T05:03:52;15.10;99.90
70368;DHT22;57789;53.868;10.728;2023-06-24T05:06:18;15.20;99.90
70368;DHT22;57789;53.868;10.728;2023-06-24T05:08:44;15.20;99.90
70368;DHT22;57789;53.868;10.728;2023-06-24T05:11:09;15.30;99.90
70368;DHT22;57789;53.868;10.728;2023-06-24T05:13:35;15.40;99.90
70368;DHT22;57789;53.868;10.728;2023-06-24T05:16:01;15.30;99.90
70368;DHT22;57789;53.868;10.728;2023-06-24T05:18:27;15.40;99.90
70368;DHT22;57789;53.868;10.728;2023-06-24T05:20:53;15.40;99.90
70368;DHT22;57789;53.868;10.728;2023-06-24T05:23:18;15.50;99.90
70368;DHT22;57789;53.868;10.728;2023-06-24T05:25:44;15.50;99.90
70368;DHT22;57789;53.868;10.728;2023-06-24T05:28:10;15.50;99.90
70368;DHT22;57789;53.868;10.728;2023-06-24T05:30:36;15.60;99.90
70368;DHT22;57789;53.868;10.728;2023-06-24T05:33:02;15.70;99.90
70368;DHT22;57789;53.868;10.728;2023-06-24T05:35:27;15.70;99.90
70368;DHT22;57789;53.868;10.728;2023-06-24T05:37:53;15.80;99.90
70368;DHT22;57789;53.868;10.728;2023-06-24T05:40:19;15.90;99.90
70368;DHT22;57789;53.868;10.728;2023-06-24T05:42:45;16.00;99.90
70368;DHT22;57789;53.868;10.728;2023-06-24T05:45:11;16.00;99.90
70368;DHT22;57789;53.868;10.728;2023-06-24T05:47:37;16.10;99.90
70368;DHT22;57789;53.868;10.728;2023-06-24T05:50:04;16.10;99.90
70368;DHT22;57789;53.868;10.728;2023-06-24T05:52:29;16.20;99.90
70368;DHT22;57789;53.868;10.728;2023-06-24T05:54:55;16.30;99.90
70368;DHT22;57789;53.868;10.728;2023-06-24T05:57:21;16.30;99.90
70368;DHT22;57789;53.868;10.728;2023-06-24T05:59:48;16.40;99.90
70368;DHT22;57789;53.868;10.728;2023-06-24T06:02:13;16.50;99.90
70368;DHT22;57789;53.868;10.728;2023-06-24T06:04:40;16.60;99.90
70368;DHT22;57789;53.868;10.728;2023-06-24T06:07:07;16.80;99.90
70368;DHT22;57789;53.868;10.728;2023-06-24T06:09:33;16.90;99.90
70368;DHT22;57789;53.868;10.728;2023-06-24T06:11:59;16.90;99.90
70368;DHT22;57789;53.868;10.728;2023-06-24T06:14:25;17.00;99.90
70368;DHT22;57789;53.868;10.728;2023-06-24T06:16:50;17.20;99.90
70368;DHT22;57789;53.868;10.728;2023-06-24T06:19:16;17.30;99.90
70368;DHT22;57789;53.868;10.728;2023-06-24T06:21:42;17.50;99.90
70368;DHT22;57789;53.868;10.728;2023-06-24T06:24:08;17.60;99.90
70368;DHT22;57789;53.868;10.728;2023-06-24T06:26:34;17.60;99.90
70368;DHT22;57789;53.868;10.728;2023-06-24T06:29:00;17.70;99.90
70368;DHT22;57789;53.868;10.728;2023-06-24T06:31:25;17.90;99.90
70368;DHT22;57789;53.868;10.728;2023-06-24T06:33:51;17.70;99.90
70368;DHT22;57789;53.868;10.728;2023-06-24T06:36:18;17.70;99.90
70368;DHT22;57789;53.868;10.728;2023-06-24T06:38:44;17.70;99.90
70368;DHT22;57789;53.868;10.728;2023-06-24T06:41:10;17.80;99.90
70368;DHT22;57789;53.868;10.728;2023-06-24T06:43:35;17.80;99.90
70368;DHT22;57789;53.868;10.728;2023-06-24T06:46:01;17.70;99.90
70368;DHT22;57789;53.868;10.728;2023-06-24T06:48:27;17.70;99.90
70368;DHT22;57789;53.868;10.728;2023-06-24T06:50:53;17.70;99.90
70368;DHT22;57789;53.868;10.728;2023-06-24T06:53:19;17.80;99.90
70368;DHT22;57789;53.868;10.728;2023-06-24T06:55:45;17.70;99.90
70368;DHT22;57789;53.868;10.728;2023-06-24T06:58:10;17.80;99.90
70368;DHT22;57789;53.868;10.728;2023-06-24T07:00:37;17.80;99.90
70368;DHT22;57789;53.868;10.728;2023-06-24T07:03:03;17.70;99.90
70368;DHT22;57789;53.868;10.728;2023-06-24T07:05:29;17.80;99.90
70368;DHT22;57789;53.868;10.728;2023-06-24T07:07:55;17.90;99.90
70368;DHT22;57789;53.868;10.728;2023-06-24T07:10:21;17.80;99.90
70368;DHT22;57789;53.868;10.728;2023-06-24T07:12:47;17.70;99.90
70368;DHT22;57789;53.868;10.728;2023-06-24T07:15:12;17.70;99.90
70368;DHT22;57789;53.868;10.728;2023-06-24T07:17:38;17.70;99.90
70368;DHT22;57789;53.868;10.728;2023-06-24T07:20:04;17.70;99.90
70368;DHT22;57789;53.868;10.728;2023-06-24T07:22:30;17.90;99.90
70368;DHT22;57789;53.868;10.728;2023-06-24T07:24:57;18.00;99.90
70368;DHT22;57789;53.868;10.728;2023-06-24T07:27:23;18.00;99.90
70368;DHT22;57789;53.868;10.728;2023-06-24T07:29:49;18.10;99.90
70368;DHT22;57789;53.868;10.728;2023-06-24T07:32:16;18.20;99.90
70368;DHT22;57789;53.868;10.728;2023-06-24T07:34:42;18.30;99.90
70368;DHT22;57789;53.868;10.728;2023-06-24T07:37:07;18.50;99.90
70368;DHT22;57789;53.868;10.728;2023-06-24T07:39:33;18.40;99.90
70368;DHT22;57789;53.868;10.728;2023-06-24T07:41:59;18.30;99.90
70368;DHT22;57789;53.868;10.728;2023-06-24T07:44:25;18.30;99.90
70368;DHT22;57789;53.868;10.728;2023-06-24T07:46:52;18.50;99.90
70368;DHT22;57789;53.868;10.728;2023-06-24T07:49:18;18.60;99.90
70368;DHT22;57789;53.868;10.728;2023-06-24T07:51:44;18.70;99.90
70368;DHT22;57789;53.868;10.728;2023-06-24T07:54:10;18.80;99.90
70368;DHT22;57789;53.868;10.728;2023-06-24T07:56:36;18.90;99.90
70368;DHT22;57789;53.868;10.728;2023-06-24T07:59:02;19.00;99.90
70368;DHT22;57789;53.868;10.728;2023-06-24T08:01:28;19.00;99.90
70368;DHT22;57789;53.868;10.728;2023-06-24T08:03:54;19.00;99.90
70368;DHT22;57789;53.868;10.728;2023-06-24T08:06:20;19.20;99.90
70368;DHT22;57789;53.868;10.728;2023-06-24T08:08:46;19.40;99.90
70368;DHT22;57789;53.868;10.728;2023-06-24T08:11:13;19.50;99.90
70368;DHT22;57789;53.868;10.728;2023-06-24T08:13:39;19.60;99.90
70368;DHT22;57789;53.868;10.728;2023-06-24T08:16:05;19.70;99.90
70368;DHT22;57789;53.868;10.728;2023-06-24T08:18:31;19.80;99.90
70368;DHT22;57789;53.868;10.728;2023-06-24T08:20:57;19.70;99.90
70368;DHT22;57789;53.868;10.728;2023-06-24T08:23:23;19.70;99.90
70368;DHT22;57789;53.868;10.728;2023-06-24T08:25:48;19.80;99.90
70368;DHT22;57789;53.868;10.728;2023-06-24T08:28:14;19.70;99.90
70368;DHT22;57789;53.868;10.728;2023-06-24T08:30:40;19.90;99.90
70368;DHT22;57789;53.868;10.728;2023-06-24T08:33:06;19.90;99.90
70368;DHT22;57789;53.868;10.728;2023-06-24T08:35:31;20.00;99.90
70368;DHT22;57789;53.868;10.728;2023-06-24T08:37:57;20.20;99.90
70368;DHT22;57789;53.868;10.728;2023-06-24T08:40:23;20.20;99.90
70368;DHT22;57789;53.868;10.728;2023-06-24T08:42:49;20.20;99.90
70368;DHT22;57789;53.868;10.728;2023-06-24T08:45:15;20.20;99.90
70368;DHT22;57789;53.868;10.728;2023-06-24T08:47:42;20.20;99.90
70368;DHT22;57789;53.868;10.728;2023-06-24T08:50:13;20.30;99.90
70368;DHT22;57789;53.868;10.728;2023-06-24T08:52:42;20.40;99.90
70368;DHT22;57789;53.868;10.728;2023-06-24T08:55:13;20.60;99.90
70368;DHT22;57789;53.868;10.728;2023-06-24T08:57:39;20.70;99.90
70368;DHT22;57789;53.868;10.728;2023-06-24T09:00:06;20.80;99.90
70368;DHT22;57789;53.868;10.728;2023-06-24T09:02:36;20.80;99.90
70368;DHT22;57789;53.868;10.728;2023-06-24T09:05:07;20.90;99.90
70368;DHT22;57789;53.868;10.728;2023-06-24T09:07:34;20.80;99.90
70368;DHT22;57789;53.868;10.728;2023-06-24T09:10:00;20.90;99.90
70368;DHT22;57789;53.868;10.728;2023-06-24T09:12:28;21.10;99.90
70368;DHT22;57789;53.868;10.728;2023-06-24T09:14:57;21.40;99.90
70368;DHT22;57789;53.868;10.728;2023-06-24T09:17:23;21.40;99.90
70368;DHT22;57789;53.868;10.728;2023-06-24T09:19:49;21.40;99.90
70368;DHT22;57789;53.868;10.728;2023-06-24T09:22:16;21.50;99.90
70368;DHT22;57789;53.868;10.728;2023-06-24T09:24:44;21.60;99.90
70368;DHT22;57789;53.868;10.728;2023-06-24T09:27:13;21.90;99.90
70368;DHT22;57789;53.868;10.728;2023-06-24T09:29:41;22.10;99.90
70368;DHT22;57789;53.868;10.728;2023-06-24T09:32:08;22.40;99.90
70368;DHT22;57789;53.868;10.728;2023-06-24T09:34:34;22.30;99.90
70368;DHT22;57789;53.868;10.728;2023-06-24T09:37:00;22.20;99.90
70368;DHT22;57789;53.868;10.728;2023-06-24T09:39:27;22.40;99.90
70368;DHT22;57789;53.868;10.728;2023-06-24T09:42:01;22.40;99.90
70368;DHT22;57789;53.868;10.728;2023-06-24T09:44:28;22.50;99.90
70368;DHT22;57789;53.868;10.728;2023-06-24T09:46:55;22.80;99.90
70368;DHT22;57789;53.868;10.728;2023-06-24T09:49:24;23.20;99.90
70368;DHT22;57789;53.868;10.728;2023-06-24T09:51:58;23.50;99.90
70368;DHT22;57789;53.868;10.728;2023-06-24T09:54:28;23.40;99.90
70368;DHT22;57789;53.868;10.728;2023-06-24T09:56:55;23.00;99.90
70368;DHT22;57789;53.868;10.728;2023-06-24T09:59:24;22.70;99.90
70368;DHT22;57789;53.868;10.728;2023-06-24T10:01:53;22.70;99.90
70368;DHT22;57789;53.868;10.728;2023-06-24T10:04:21;22.60;99.90
70368;DHT22;57789;53.868;10.728;2023-06-24T10:06:50;22.90;99.90
70368;DHT22;57789;53.868;10.728;2023-06-24T10:09:17;23.20;99.90
70368;DHT22;57789;53.868;10.728;2023-06-24T10:11:46;23.30;99.90
70368;DHT22;57789;53.868;10.728;2023-06-24T10:14:14;23.50;99.90
70368;DHT22;57789;53.868;10.728;2023-06-24T10:16:44;23.70;99.90
70368;DHT22;57789;53.868;10.728;2023-06-24T10:19:09;24.00;99.90
70368;DHT22;57789;53.868;10.728;2023-06-24T10:24:31;24.40;99.90
70368;DHT22;57789;53.868;10.728;2023-06-24T10:29:35;24.60;99.90
70368;DHT22;57789;53.868;10.728;2023-06-24T10:32:09;24.30;99.90
70368;DHT22;57789;53.868;10.728;2023-06-24T10:37:31;24.20;99.90
70368;DHT22;57789;53.868;10.728;2023-06-24T10:42:29;23.80;99.90
70368;DHT22;57789;53.868;10.728;2023-06-24T10:44:59;23.70;99.90
70368;DHT22;57789;53.868;10.728;2023-06-24T10:47:27;23.60;99.90
70368;DHT22;57789;53.868;10.728;2023-06-24T10:49:53;23.70;99.90
70368;DHT22;57789;53.868;10.728;2023-06-24T10:52:20;23.80;99.90
70368;DHT22;57789;53.868;10.728;2023-06-24T10:54:47;24.10;99.90
70368;DHT22;57789;53.868;10.728;2023-06-24T10:57:13;24.10;99.90
70368;DHT22;57789;53.868;10.728;2023-06-24T10:59:41;24.40;99.90
70368;DHT22;57789;53.868;10.728;2023-06-24T11:02:08;24.80;99.90
70368;DHT22;57789;53.868;10.728;2023-06-24T11:05:03;24.90;99.90
70368;DHT22;57789;53.868;10.728;2023-06-24T11:07:32;25.00;99.90
70368;DHT22;57789;53.868;10.728;2023-06-24T11:10:12;25.10;99.90
70368;DHT22;57789;53.868;10.728;2023-06-24T11:12:40;25.20;99.90
70368;DHT22;57789;53.868;10.728;2023-06-24T11:15:09;25.60;99.90
70368;DHT22;57789;53.868;10.728;2023-06-24T11:17:36;25.50;99.90
70368;DHT22;57789;53.868;10.728;2023-06-24T11:20:10;25.60;99.90
70368;DHT22;57789;53.868;10.728;2023-06-24T11:22:36;25.60;99.90
70368;DHT22;57789;53.868;10.728;2023-06-24T11:25:03;25.20;99.90
70368;DHT22;57789;53.868;10.728;2023-06-24T11:27:30;25.00;99.90
70368;DHT22;57789;53.868;10.728;2023-06-24T11:29:58;25.00;99.90
70368;DHT22;57789;53.868;10.728;2023-06-24T11:32:35;24.80;99.90
70368;DHT22;57789;53.868;10.728;2023-06-24T11:35:03;25.00;99.90
70368;DHT22;57789;53.868;10.728;2023-06-24T11:37:31;25.40;99.90
70368;DHT22;57789;53.868;10.728;2023-06-24T11:40:02;25.50;99.90
70368;DHT22;57789;53.868;10.728;2023-06-24T11:42:32;25.90;99.90
70368;DHT22;57789;53.868;10.728;2023-06-24T11:45:02;25.60;99.90
70368;DHT22;57789;53.868;10.728;2023-06-24T11:47:31;25.70;99.90
70368;DHT22;57789;53.868;10.728;2023-06-24T11:49:58;26.20;99.90
70368;DHT22;57789;53.868;10.728;2023-06-24T11:52:47;26.20;99.90
70368;DHT22;57789;53.868;10.728;2023-06-24T11:55:18;25.90;99.90
70368;DHT22;57789;53.868;10.728;2023-06-24T11:58:00;26.10;99.90
70368;DHT22;57789;53.868;10.728;2023-06-24T12:00:27;26.30;99.90
70368;DHT22;57789;53.868;10.728;2023-06-24T12:02:56;26.10;99.90
70368;DHT22;57789;53.868;10.728;2023-06-24T12:05:27;25.90;99.90
70368;DHT22;57789;53.868;10.728;2023-06-24T12:08:09;25.80;99.90
70368;DHT22;57789;53.868;10.728;2023-06-24T12:10:37;25.90;99.90
70368;DHT22;57789;53.868;10.728;2023-06-24T12:13:04;26.40;99.90
70368;DHT22;57789;53.868;10.728;2023-06-24T12:15:34;27.20;99.90
70368;DHT22;57789;53.868;10.728;2023-06-24T12:18:00;28.00;99.90
70368;DHT22;57789;53.868;10.728;2023-06-24T12:20:27;29.00;99.00
70368;DHT22;57789;53.868;10.728;2023-06-24T12:22:53;29.00;97.40
70368;DHT22;57789;53.868;10.728;2023-06-24T12:25:19;28.90;97.00
70368;DHT22;57789;53.868;10.728;2023-06-24T12:27:45;28.60;96.70
70368;DHT22;57789;53.868;10.728;2023-06-24T12:30:12;28.50;97.40
70368;DHT22;57789;53.868;10.728;2023-06-24T12:32:38;28.10;96.90
70368;DHT22;57789;53.868;10.728;2023-06-24T12:35:07;27.50;98.80
70368;DHT22;57789;53.868;10.728;2023-06-24T12:37:35;27.00;99.30
70368;DHT22;57789;53.868;10.728;2023-06-24T12:40:02;27.10;99.90
70368;DHT22;57789;53.868;10.728;2023-06-24T12:42:28;26.90;99.90
70368;DHT22;57789;53.868;10.728;2023-06-24T12:44:54;26.90;99.90
70368;DHT22;57789;53.868;10.728;2023-06-24T12:47:21;26.70;99.90
70368;DHT22;57789;53.868;10.728;2023-06-24T12:49:47;26.50;99.90
70368;DHT22;57789;53.868;10.728;2023-06-24T12:52:14;26.20;99.90
70368;DHT22;57789;53.868;10.728;2023-06-24T12:54:40;25.90;99.90
70368;DHT22;57789;53.868;10.728;2023-06-24T12:57:06;25.60;99.90
70368;DHT22;57789;53.868;10.728;2023-06-24T12:59:32;25.30;99.90
70368;DHT22;57789;53.868;10.728;2023-06-24T13:01:58;25.40;99.90
70368;DHT22;57789;53.868;10.728;2023-06-24T13:04:24;25.20;99.90
70368;DHT22;57789;53.868;10.728;2023-06-24T13:06:53;25.40;99.90
70368;DHT22;57789;53.868;10.728;2023-06-24T13:09:19;25.40;99.90
70368;DHT22;57789;53.868;10.728;2023-06-24T13:11:45;25.50;99.90
70368;DHT22;57789;53.868;10.728;2023-06-24T13:14:12;25.40;99.90
70368;DHT22;57789;53.868;10.728;2023-06-24T13:16:39;25.50;99.90
70368;DHT22;57789;53.868;10.728;2023-06-24T13:19:04;25.70;99.90
70368;DHT22;57789;53.868;10.728;2023-06-24T13:21:31;25.40;99.90
70368;DHT22;57789;53.868;10.728;2023-06-24T13:23:57;25.40;99.90
70368;DHT22;57789;53.868;10.728;2023-06-24T13:26:23;25.90;99.90
70368;DHT22;57789;53.868;10.728;2023-06-24T13:28:50;26.90;99.90
70368;DHT22;57789;53.868;10.728;2023-06-24T13:31:16;27.50;99.90
70368;DHT22;57789;53.868;10.728;2023-06-24T13:33:42;27.60;99.90
70368;DHT22;57789;53.868;10.728;2023-06-24T13:36:11;27.10;99.60
70368;DHT22;57789;53.868;10.728;2023-06-24T13:38:39;26.80;99.90
70368;DHT22;57789;53.868;10.728;2023-06-24T13:41:05;26.60;99.90
70368;DHT22;57789;53.868;10.728;2023-06-24T13:43:31;26.20;99.90
70368;DHT22;57789;53.868;10.728;2023-06-24T13:45:57;26.50;99.90
70368;DHT22;57789;53.868;10.728;2023-06-24T13:48:25;26.60;99.90
70368;DHT22;57789;53.868;10.728;2023-06-24T13:50:54;26.40;99.90
70368;DHT22;57789;53.868;10.728;2023-06-24T13:53:20;26.40;99.90
70368;DHT22;57789;53.868;10.728;2023-06-24T13:55:46;26.10;99.90
70368;DHT22;57789;53.868;10.728;2023-06-24T13:58:12;25.90;99.90
70368;DHT22;57789;53.868;10.728;2023-06-24T14:00:37;26.00;99.90
70368;DHT22;57789;53.868;10.728;2023-06-24T14:03:03;26.30;99.90
70368;DHT22;57789;53.868;10.728;2023-06-24T14:05:29;26.40;99.90
70368;DHT22;57789;53.868;10.728;2023-06-24T14:07:55;26.30;99.90
70368;DHT22;57789;53.868;10.728;2023-06-24T14:10:20;26.10;99.90
70368;DHT22;57789;53.868;10.728;2023-06-24T14:12:46;26.30;99.90
70368;DHT22;57789;53.868;10.728;2023-06-24T14:15:12;27.00;99.90
70368;DHT22;57789;53.868;10.728;2023-06-24T14:17:37;28.20;99.60
70368;DHT22;57789;53.868;10.728;2023-06-24T14:20:03;28.60;97.70
70368;DHT22;57789;53.868;10.728;2023-06-24T14:22:30;28.50;97.30
70368;DHT22;57789;53.868;10.728;2023-06-24T14:24:56;28.20;96.70
70368;DHT22;57789;53.868;10.728;2023-06-24T14:27:22;27.80;96.90
70368;DHT22;57789;53.868;10.728;2023-06-24T14:29:48;28.30;96.70
70368;DHT22;57789;53.868;10.728;2023-06-24T14:32:14;29.40;95.30
70368;DHT22;57789;53.868;10.728;2023-06-24T14:34:40;29.80;94.40
70368;DHT22;57789;53.868;10.728;2023-06-24T14:37:05;30.20;92.60
70368;DHT22;57789;53.868;10.728;2023-06-24T14:39:32;29.40;92.80
70368;DHT22;57789;53.868;10.728;2023-06-24T14:41:58;29.50;93.50
70368;DHT22;57789;53.868;10.728;2023-06-24T14:44:23;29.60;93.10
70368;DHT22;57789;53.868;10.728;2023-06-24T14:46:49;29.80;92.40
70368;DHT22;57789;53.868;10.728;2023-06-24T14:49:15;29.70;91.90
70368;DHT22;57789;53.868;10.728;2023-06-24T14:54:51;29.40;91.30
70368;DHT22;57789;53.868;10.728;2023-06-24T14:57:18;28.50;91.70
70368;DHT22;57789;53.868;10.728;2023-06-24T14:59:44;27.70;93.50
70368;DHT22;57789;53.868;10.728;2023-06-24T15:02:10;27.90;94.40
70368;DHT22;57789;53.868;10.728;2023-06-24T15:04:36;28.40;94.40
70368;DHT22;57789;53.868;10.728;2023-06-24T15:07:02;29.10;93.20
70368;DHT22;57789;53.868;10.728;2023-06-24T15:09:28;29.40;93.10
70368;DHT22;57789;53.868;10.728;2023-06-24T15:11:59;29.40;92.70
70368;DHT22;57789;53.868;10.728;2023-06-24T15:14:25;29.70;92.10
70368;DHT22;57789;53.868;10.728;2023-06-24T15:16:51;30.00;91.60
70368;DHT22;57789;53.868;10.728;2023-06-24T15:19:19;30.00;91.50
70368;DHT22;57789;53.868;10.728;2023-06-24T15:21:45;28.80;92.40
70368;DHT22;57789;53.868;10.728;2023-06-24T15:24:11;28.20;93.10
70368;DHT22;57789;53.868;10.728;2023-06-24T15:26:36;28.10;94.40
70368;DHT22;57789;53.868;10.728;2023-06-24T15:29:02;28.20;95.70
70368;DHT22;57789;53.868;10.728;2023-06-24T15:31:28;28.30;94.70
70368;DHT22;57789;53.868;10.728;2023-06-24T15:33:54;27.80;95.20
70368;DHT22;57789;53.868;10.728;2023-06-24T15:36:21;27.30;95.80
70368;DHT22;57789;53.868;10.728;2023-06-24T15:38:48;27.30;96.00
70368;DHT22;57789;53.868;10.728;2023-06-24T15:41:14;27.00;96.40
70368;DHT22;57789;53.868;10.728;2023-06-24T15:43:40;26.80;97.60
70368;DHT22;57789;53.868;10.728;2023-06-24T15:46:06;26.70;98.00
70368;DHT22;57789;53.868;10.728;2023-06-24T15:48:32;26.50;98.60